createdAt,value
2023-05-05T00:00:00.610Z,2.30
2023-05-05T00:02:27.627Z,2.13
2023-05-05T00:04:54.677Z,2.10
2023-05-05T00:07:21.634Z,2.20
2023-05-05T00:09:48.519Z,2.30
2023-05-05T00:12:15.607Z,2.10
2023-05-05T00:14:42.804Z,2.38
2023-05-05T00:17:10.072Z,2.20
2023-05-05T00:19:37.423Z,2.63
2023-05-05T00:22:04.391Z,2.83
2023-05-05T00:24:31.422Z,2.38
2023-05-05T00:26:58.424Z,2.20
2023-05-05T00:29:25.372Z,2.42
2023-05-05T00:31:52.496Z,2.33
2023-05-05T00:34:20.208Z,2.92
2023-05-05T00:36:47.209Z,3.53
2023-05-05T00:39:14.480Z,3.20
2023-05-05T00:41:41.592Z,2.88
2023-05-05T00:44:08.710Z,3.05
2023-05-05T00:46:36.043Z,3.00
2023-05-05T00:49:03.231Z,3.50
2023-05-05T00:51:31.453Z,2.75
2023-05-05T00:53:58.643Z,2.53
2023-05-05T00:56:27.484Z,2.75
2023-05-05T00:58:54.886Z,2.85
2023-05-05T01:01:21.888Z,3.38
2023-05-05T01:03:48.979Z,2.72
2023-05-05T01:06:26.571Z,2.85
2023-05-05T01:09:21.769Z,2.80
2023-05-05T01:12:24.539Z,3.35
2023-05-05T01:15:13.048Z,3.25
2023-05-05T01:17:45.596Z,2.25
2023-05-05T01:20:35.781Z,2.53
2023-05-05T01:23:07.477Z,2.92
2023-05-05T01:25:40.588Z,2.33
2023-05-05T01:28:24.707Z,2.60
2023-05-05T01:31:11.510Z,2.65
2023-05-05T01:33:49.053Z,2.70
2023-05-05T01:36:32.944Z,3.03
2023-05-05T01:39:03.013Z,2.50
2023-05-05T01:41:49.275Z,2.67
2023-05-05T01:44:18.911Z,2.65
2023-05-05T01:46:48.992Z,2.65
2023-05-05T01:49:16.782Z,2.67
2023-05-05T01:51:47.023Z,2.45
2023-05-05T01:54:16.405Z,2.75
2023-05-05T01:56:44.318Z,2.97
2023-05-05T01:59:11.886Z,2.97
2023-05-05T02:01:41.866Z,3.10
2023-05-05T02:04:10.107Z,2.65
2023-05-05T02:06:40.022Z,2.83
2023-05-05T02:09:09.874Z,2.50
2023-05-05T02:11:36.844Z,2.67
2023-05-05T02:14:06.915Z,2.97
2023-05-05T02:16:34.081Z,3.00
2023-05-05T02:19:06.029Z,3.03
2023-05-05T02:21:34.267Z,2.45
2023-05-05T02:24:01.775Z,2.92
2023-05-05T02:26:33.932Z,2.95
2023-05-05T02:29:15.100Z,2.88
2023-05-05T02:31:47.589Z,2.85
2023-05-05T02:34:27.255Z,2.30
2023-05-05T02:36:58.597Z,2.42
2023-05-05T02:39:41.194Z,2.50
2023-05-05T02:42:18.614Z,2.67
2023-05-05T02:44:47.606Z,2.95
2023-05-05T02:47:15.591Z,2.53
2023-05-05T02:49:43.084Z,2.97
2023-05-05T02:52:10.247Z,2.97
2023-05-05T02:54:39.038Z,3.00
2023-05-05T02:57:18.542Z,3.20
2023-05-05T03:00:30.481Z,3.63
2023-05-05T03:03:10.521Z,3.08
2023-05-05T03:05:46.018Z,3.10
2023-05-05T03:08:18.358Z,3.47
2023-05-05T03:11:00.558Z,3.38
2023-05-05T03:13:29.552Z,2.97
2023-05-05T03:15:58.921Z,2.92
2023-05-05T03:18:29.622Z,2.78
2023-05-05T03:21:08.776Z,3.08
2023-05-05T03:23:39.154Z,2.97
2023-05-05T03:26:11.781Z,2.83
2023-05-05T03:28:42.306Z,2.58
2023-05-05T03:31:28.558Z,2.65
2023-05-05T03:33:58.888Z,2.45
2023-05-05T03:36:30.653Z,2.42
2023-05-05T03:38:58.901Z,2.67
2023-05-05T03:41:29.607Z,3.28
2023-05-05T03:43:56.816Z,2.72
2023-05-05T03:46:24.687Z,2.25
2023-05-05T03:48:51.956Z,2.80
2023-05-05T03:51:19.183Z,2.22
2023-05-05T03:53:46.748Z,2.30
2023-05-05T03:56:13.814Z,2.60
2023-05-05T03:58:40.775Z,2.13
2023-05-05T04:01:08.592Z,1.88
2023-05-05T04:03:35.913Z,2.20
2023-05-05T04:06:03.124Z,2.08
2023-05-05T04:08:31.812Z,2.17
2023-05-05T04:10:59.466Z,2.08
2023-05-05T04:13:26.611Z,2.00
2023-05-05T04:15:53.657Z,2.22
2023-05-05T04:18:20.883Z,2.60
2023-05-05T04:20:47.938Z,2.30
2023-05-05T04:23:15.412Z,2.10
2023-05-05T04:25:43.154Z,2.25
2023-05-05T04:28:12.090Z,2.25
2023-05-05T04:30:39.324Z,2.05
2023-05-05T04:33:06.668Z,2.10
2023-05-05T04:35:34.201Z,2.28
2023-05-05T04:38:01.324Z,2.35
2023-05-05T04:40:28.639Z,2.53
2023-05-05T04:42:57.362Z,2.33
2023-05-05T04:45:24.326Z,2.60
2023-05-05T04:47:51.608Z,2.58
2023-05-05T04:50:18.550Z,2.60
2023-05-05T04:52:45.443Z,2.20
2023-05-05T04:55:12.692Z,2.25
2023-05-05T04:57:39.852Z,2.28
2023-05-05T05:00:08.214Z,2.33
2023-05-05T05:02:37.735Z,1.90
2023-05-05T05:05:05.205Z,1.95
2023-05-05T05:07:32.220Z,2.20
2023-05-05T05:09:59.522Z,2.15
2023-05-05T05:12:26.535Z,2.08
2023-05-05T05:14:55.575Z,1.80
2023-05-05T05:17:23.980Z,2.03
2023-05-05T05:19:51.018Z,2.20
2023-05-05T05:22:17.932Z,1.40
2023-05-05T05:24:44.899Z,1.73
2023-05-05T05:27:13.305Z,1.80
2023-05-05T05:29:43.940Z,1.83
2023-05-05T05:32:11.113Z,1.80
2023-05-05T05:34:38.481Z,2.20
2023-05-05T05:37:07.202Z,2.85
2023-05-05T05:39:34.086Z,1.80
2023-05-05T05:42:02.872Z,1.73
2023-05-05T05:44:30.185Z,2.03
2023-05-05T05:46:57.119Z,1.63
2023-05-05T05:49:24.948Z,1.80
2023-05-05T05:51:52.182Z,2.47
2023-05-05T05:54:19.093Z,2.03
2023-05-05T05:56:46.390Z,2.17
2023-05-05T05:59:13.357Z,2.15
2023-05-05T06:01:41.418Z,1.90
2023-05-05T06:04:08.997Z,1.77
2023-05-05T06:06:41.788Z,1.70
2023-05-05T06:09:09.896Z,2.08
2023-05-05T06:11:38.115Z,1.83
2023-05-05T06:14:05.672Z,1.90
2023-05-05T06:16:32.708Z,1.88
2023-05-05T06:19:03.411Z,1.85
2023-05-05T06:21:30.661Z,1.65
2023-05-05T06:23:57.530Z,1.65
2023-05-05T06:26:24.721Z,1.75
2023-05-05T06:28:51.583Z,1.80
2023-05-05T06:31:18.604Z,2.22
2023-05-05T06:33:45.605Z,2.42
2023-05-05T06:36:12.566Z,2.00
2023-05-05T06:38:39.496Z,1.90
2023-05-05T06:41:06.773Z,2.03
2023-05-05T06:43:33.708Z,2.60
2023-05-05T06:46:05.246Z,2.78
2023-05-05T06:48:32.207Z,3.03
2023-05-05T06:50:59.112Z,3.25
2023-05-05T06:53:26.071Z,2.97
2023-05-05T06:55:52.930Z,2.10
2023-05-05T06:58:21.194Z,1.75
2023-05-05T07:00:48.023Z,2.00
2023-05-05T07:03:15.548Z,1.90
2023-05-05T07:05:42.570Z,1.70
2023-05-05T07:08:09.487Z,1.80
2023-05-05T07:10:36.481Z,1.83
2023-05-05T07:13:03.378Z,1.77
2023-05-05T07:15:30.238Z,1.85
2023-05-05T07:17:58.120Z,2.08
2023-05-05T07:20:25.417Z,1.70
2023-05-05T07:22:55.025Z,2.05
2023-05-05T07:25:22.033Z,2.80
2023-05-05T07:27:56.202Z,2.22
2023-05-05T07:30:25.062Z,2.05
2023-05-05T07:32:52.237Z,1.92
2023-05-05T07:35:19.272Z,2.00
2023-05-05T07:37:46.548Z,2.17
2023-05-05T07:40:13.870Z,1.90
2023-05-05T07:42:40.874Z,1.80
2023-05-05T07:45:08.427Z,1.50
2023-05-05T07:47:35.413Z,2.83
2023-05-05T07:50:02.370Z,2.10
2023-05-05T07:52:44.197Z,1.98
2023-05-05T07:55:13.325Z,2.13
2023-05-05T07:57:40.227Z,1.95
2023-05-05T08:00:08.157Z,2.05
2023-05-05T08:02:41.775Z,1.95
2023-05-05T08:05:09.229Z,2.00
2023-05-05T08:07:41.080Z,1.83
2023-05-05T08:10:12.096Z,1.85
2023-05-05T08:12:39.867Z,2.28
2023-05-05T08:15:07.801Z,2.15
2023-05-05T08:17:48.894Z,2.30
2023-05-05T08:20:17.209Z,2.20
2023-05-05T08:22:44.600Z,2.38
2023-05-05T08:25:13.056Z,2.38
2023-05-05T08:27:41.865Z,2.30
2023-05-05T08:30:10.297Z,2.55
2023-05-05T08:32:38.647Z,2.20
2023-05-05T08:35:06.713Z,2.10
2023-05-05T08:37:34.176Z,2.22
2023-05-05T08:40:01.128Z,2.33
2023-05-05T08:42:38.180Z,2.67
2023-05-05T08:45:08.779Z,2.20
2023-05-05T08:47:37.345Z,2.10
2023-05-05T08:50:08.146Z,2.67
2023-05-05T08:52:45.579Z,2.40
2023-05-05T08:55:25.775Z,2.55
2023-05-05T08:57:56.773Z,2.70
2023-05-05T09:00:24.582Z,2.60
2023-05-05T09:02:52.416Z,2.53
2023-05-05T09:05:19.559Z,2.28
2023-05-05T09:07:47.439Z,2.22
2023-05-05T09:10:14.730Z,2.38
2023-05-05T09:12:42.235Z,2.50
2023-05-05T09:15:16.817Z,2.38
2023-05-05T09:17:44.385Z,1.85
2023-05-05T09:20:13.543Z,2.10
2023-05-05T09:22:43.551Z,2.05
2023-05-05T09:25:15.844Z,2.28
2023-05-05T09:27:46.299Z,2.75
2023-05-05T09:30:24.803Z,2.20
2023-05-05T09:32:53.471Z,2.13
2023-05-05T09:35:21.870Z,2.40
2023-05-05T09:37:49.258Z,2.30
2023-05-05T09:40:18.092Z,2.47
2023-05-05T09:42:47.481Z,2.45
2023-05-05T09:45:17.522Z,2.80
2023-05-05T09:47:46.263Z,2.50
2023-05-05T09:50:18.860Z,2.20
2023-05-05T09:53:02.349Z,2.42
2023-05-05T09:55:31.584Z,3.00
2023-05-05T09:58:18.522Z,2.50
2023-05-05T10:00:46.534Z,2.25
2023-05-05T10:03:13.795Z,2.78
2023-05-05T10:05:48.465Z,3.08
2023-05-05T10:08:15.762Z,2.70
2023-05-05T10:10:54.482Z,2.72
2023-05-05T10:13:23.676Z,2.50
2023-05-05T10:15:52.570Z,2.90
2023-05-05T10:18:23.631Z,2.63
2023-05-05T10:20:58.975Z,2.38
2023-05-05T10:23:29.284Z,2.47
2023-05-05T10:26:05.924Z,2.35
2023-05-05T10:31:52.877Z,2.17
2023-05-05T10:34:45.946Z,2.88
2023-05-05T10:37:13.459Z,3.28
2023-05-05T10:39:40.417Z,1.90
2023-05-05T10:42:07.436Z,2.03
2023-05-05T10:44:35.126Z,2.03
2023-05-05T10:47:03.077Z,1.80
2023-05-05T10:49:44.883Z,2.10
2023-05-05T10:52:39.320Z,1.95
2023-05-05T10:55:21.477Z,2.15
2023-05-05T10:57:53.151Z,2.05
2023-05-05T11:00:38.751Z,2.38
2023-05-05T11:03:17.965Z,3.17
2023-05-05T11:06:03.670Z,2.53
2023-05-05T11:08:32.897Z,2.30
2023-05-05T11:11:07.921Z,2.88
2023-05-05T11:13:35.563Z,2.22
2023-05-05T11:16:02.709Z,2.50
2023-05-05T11:18:31.058Z,2.30
2023-05-05T11:20:57.924Z,2.30
2023-05-05T11:23:25.541Z,2.65
2023-05-05T11:25:53.174Z,2.78
2023-05-05T11:28:31.073Z,2.28
2023-05-05T11:31:01.032Z,2.17
2023-05-05T11:33:31.749Z,2.13
2023-05-05T11:36:07.184Z,2.28
2023-05-05T11:39:04.573Z,2.30
2023-05-05T11:41:32.073Z,2.70
2023-05-05T11:44:12.204Z,2.88
2023-05-05T11:47:02.728Z,3.25
2023-05-05T11:49:37.604Z,3.13
2023-05-05T11:52:12.580Z,2.90
2023-05-05T11:54:49.187Z,2.50
2023-05-05T11:57:21.238Z,2.70
2023-05-05T12:00:04.044Z,2.72
2023-05-05T12:02:40.960Z,2.38
2023-05-05T12:05:08.301Z,2.20
2023-05-05T12:07:35.505Z,1.80
2023-05-05T12:10:02.814Z,2.72
2023-05-05T12:12:38.762Z,2.00
2023-05-05T12:15:07.183Z,2.20
2023-05-05T12:17:44.939Z,3.03
2023-05-05T12:20:12.916Z,2.30
2023-05-05T12:22:40.519Z,2.10
2023-05-05T12:25:08.577Z,2.20
2023-05-05T12:27:36.273Z,2.10
2023-05-05T12:30:15.721Z,2.10
2023-05-05T12:32:43.387Z,2.05
2023-05-05T12:35:11.678Z,2.30
2023-05-05T12:37:39.309Z,2.05
2023-05-05T12:40:08.897Z,2.05
2023-05-05T12:42:40.106Z,2.00
2023-05-05T12:45:15.785Z,2.17
2023-05-05T12:47:44.927Z,1.83
2023-05-05T12:50:12.173Z,2.25
2023-05-05T12:52:44.587Z,2.10
2023-05-05T12:55:12.608Z,1.83
2023-05-05T12:57:58.197Z,2.05
2023-05-05T13:00:25.886Z,1.83
2023-05-05T13:02:53.426Z,2.20
2023-05-05T13:05:38.390Z,1.80
2023-05-05T13:08:05.483Z,2.05
2023-05-05T13:10:32.529Z,1.95
2023-05-05T13:12:59.672Z,2.00
2023-05-05T13:15:27.484Z,1.80
2023-05-05T13:18:01.468Z,1.80
2023-05-05T13:20:28.854Z,1.80
2023-05-05T13:22:55.893Z,1.77
2023-05-05T13:25:22.951Z,2.00
2023-05-05T13:27:49.888Z,2.15
2023-05-05T13:30:16.803Z,1.95
2023-05-05T13:32:43.840Z,1.80
2023-05-05T13:35:12.221Z,1.95
2023-05-05T13:37:42.564Z,2.03
2023-05-05T13:40:10.540Z,1.85
2023-05-05T13:42:37.524Z,1.98
2023-05-05T13:45:04.877Z,2.20
2023-05-05T13:47:32.225Z,2.08
2023-05-05T13:49:59.542Z,2.30
2023-05-05T13:52:27.726Z,1.88
2023-05-05T13:54:55.688Z,2.55
2023-05-05T13:57:22.638Z,2.08
2023-05-05T13:59:49.812Z,1.88
2023-05-05T14:02:16.723Z,2.05
2023-05-05T14:04:43.747Z,2.03
2023-05-05T14:07:10.754Z,2.30
2023-05-05T14:09:37.758Z,1.98
2023-05-05T14:12:05.197Z,2.08
2023-05-05T14:14:32.256Z,2.05
2023-05-05T14:16:59.687Z,2.40
2023-05-05T14:19:26.760Z,2.58
2023-05-05T14:21:53.849Z,2.63
2023-05-05T14:24:20.947Z,2.30
2023-05-05T14:26:47.964Z,2.80
2023-05-05T14:29:15.063Z,2.45
2023-05-05T14:31:42.164Z,2.28
2023-05-05T14:34:09.227Z,2.25
2023-05-05T14:36:36.331Z,2.88
2023-05-05T14:39:03.469Z,2.60
2023-05-05T14:41:30.726Z,2.80
2023-05-05T14:43:57.633Z,2.40
2023-05-05T14:46:25.084Z,2.40
2023-05-05T14:48:52.576Z,2.15
2023-05-05T14:51:19.515Z,2.05
2023-05-05T14:53:46.876Z,2.40
2023-05-05T14:56:14.229Z,1.98
2023-05-05T14:58:41.535Z,1.85
2023-05-05T15:01:08.555Z,2.22
2023-05-05T15:03:35.801Z,2.00
2023-05-05T15:06:02.769Z,2.08
2023-05-05T15:08:29.722Z,2.50
2023-05-05T15:10:56.893Z,2.47
2023-05-05T15:13:24.037Z,1.95
2023-05-05T15:15:51.508Z,2.20
2023-05-05T15:18:18.693Z,2.45
2023-05-05T15:20:45.627Z,2.40
2023-05-05T15:23:12.560Z,2.40
2023-05-05T15:25:39.538Z,2.70
2023-05-05T15:28:06.553Z,1.92
2023-05-05T15:30:33.840Z,2.20
2023-05-05T15:33:00.840Z,2.40
2023-05-05T15:35:27.915Z,2.50
2023-05-05T15:37:55.195Z,2.38
2023-05-05T15:40:22.455Z,2.60
2023-05-05T15:42:52.154Z,2.47
2023-05-05T15:45:19.272Z,2.13
2023-05-05T15:47:46.436Z,2.67
2023-05-05T15:50:14.257Z,3.03
2023-05-05T15:52:41.266Z,2.58
2023-05-05T15:55:10.424Z,2.30
2023-05-05T15:57:39.959Z,1.90
2023-05-05T16:00:08.559Z,2.13
2023-05-05T16:02:35.843Z,2.10
2023-05-05T16:05:02.808Z,2.63
2023-05-05T16:07:31.245Z,2.20
2023-05-05T16:09:58.265Z,2.20
2023-05-05T16:12:25.547Z,2.28
2023-05-05T16:14:53.309Z,2.38
2023-05-05T16:17:21.695Z,2.42
2023-05-05T16:19:49.648Z,2.10
2023-05-05T16:22:16.755Z,2.58
2023-05-05T16:24:44.401Z,2.38
2023-05-05T16:27:11.599Z,2.60
2023-05-05T16:29:38.871Z,2.47
2023-05-05T16:32:06.231Z,2.10
2023-05-05T16:34:33.446Z,2.53
2023-05-05T16:37:00.917Z,2.03
2023-05-05T16:39:27.968Z,2.30
2023-05-05T16:41:55.086Z,2.50
2023-05-05T16:44:22.137Z,2.33
2023-05-05T16:46:49.139Z,2.60
2023-05-05T16:49:16.277Z,2.25
2023-05-05T16:51:43.290Z,2.63
2023-05-05T16:54:10.353Z,2.22
2023-05-05T16:56:37.393Z,2.85
2023-05-05T16:59:04.423Z,3.10
2023-05-05T17:01:32.190Z,2.55
2023-05-05T17:04:02.436Z,2.50
2023-05-05T17:06:33.033Z,2.90
2023-05-05T17:09:00.357Z,2.85
2023-05-05T17:11:27.464Z,2.70
2023-05-05T17:13:54.477Z,2.60
2023-05-05T17:16:21.548Z,3.10
2023-05-05T17:18:48.530Z,3.00
2023-05-05T17:21:15.585Z,2.85
2023-05-05T17:23:42.560Z,3.33
2023-05-05T17:26:09.531Z,2.97
2023-05-05T17:28:36.520Z,3.15
2023-05-05T17:31:03.553Z,3.20
2023-05-05T17:33:33.536Z,3.50
2023-05-05T17:36:00.918Z,3.35
2023-05-05T17:38:28.015Z,3.42
2023-05-05T17:40:54.938Z,3.47
2023-05-05T17:43:21.836Z,3.50
2023-05-05T17:45:49.001Z,3.15
2023-05-05T17:48:15.973Z,2.70
2023-05-05T17:50:43.617Z,3.22
2023-05-05T17:53:10.914Z,2.70
2023-05-05T17:55:38.040Z,3.30
2023-05-05T17:58:05.088Z,3.03
2023-05-05T18:00:32.167Z,2.78
2023-05-05T18:03:01.106Z,2.50
2023-05-05T18:05:28.600Z,3.05
2023-05-05T18:07:55.861Z,3.10
2023-05-05T18:10:23.437Z,3.67
2023-05-05T18:12:50.509Z,2.75
2023-05-05T18:15:17.669Z,2.63
2023-05-05T18:17:44.751Z,3.17
2023-05-05T18:20:12.013Z,2.97
2023-05-05T18:22:39.145Z,2.80
2023-05-05T18:25:07.969Z,2.97
2023-05-05T18:27:36.145Z,2.97
2023-05-05T18:30:04.883Z,2.78
2023-05-05T18:32:33.993Z,2.45
2023-05-05T18:35:01.217Z,2.58
2023-05-05T18:37:28.290Z,2.33
2023-05-05T18:39:55.299Z,2.67
2023-05-05T18:42:25.170Z,2.78
2023-05-05T18:44:53.295Z,2.80
2023-05-05T18:47:20.641Z,2.17
2023-05-05T18:49:48.123Z,2.30
2023-05-05T18:52:15.679Z,2.70
2023-05-05T18:54:42.773Z,2.90
2023-05-05T18:57:09.891Z,3.20
2023-05-05T18:59:36.892Z,3.00
2023-05-05T19:02:04.170Z,2.83
2023-05-05T19:04:32.275Z,2.70
2023-05-05T19:07:00.198Z,2.95
2023-05-05T19:09:27.982Z,3.08
2023-05-05T19:11:59.819Z,3.08
2023-05-05T19:14:26.799Z,2.47
2023-05-05T19:16:55.944Z,2.65
2023-05-05T19:19:23.308Z,2.85
2023-05-05T19:21:50.333Z,2.92
2023-05-05T19:24:17.573Z,2.85
2023-05-05T19:26:44.634Z,2.58
2023-05-05T19:29:11.887Z,2.92
2023-05-05T19:31:39.010Z,2.65
2023-05-05T19:34:06.307Z,2.60
2023-05-05T19:36:34.359Z,2.78
2023-05-05T19:39:02.464Z,2.80
2023-05-05T19:41:31.011Z,3.20
2023-05-05T19:43:58.246Z,2.92
2023-05-05T19:46:28.164Z,2.90
2023-05-05T19:48:55.154Z,2.95
2023-05-05T19:51:22.289Z,2.90
2023-05-05T19:53:50.269Z,2.63
2023-05-05T19:56:17.711Z,2.63
2023-05-05T19:59:01.801Z,2.65
2023-05-05T20:01:29.542Z,2.80
2023-05-05T20:03:57.186Z,3.10
2023-05-05T20:06:24.763Z,2.95
2023-05-05T20:08:52.349Z,2.50
2023-05-05T20:11:21.255Z,2.78
2023-05-05T20:13:48.300Z,3.03
2023-05-05T20:16:15.841Z,2.53
2023-05-05T20:18:43.087Z,2.47
2023-05-05T20:21:10.223Z,2.53
2023-05-05T20:23:37.390Z,2.47
2023-05-05T20:26:04.438Z,2.63
2023-05-05T20:28:31.971Z,3.33
2023-05-05T20:31:00.708Z,3.00
2023-05-05T20:33:28.966Z,2.28
2023-05-05T20:35:56.078Z,2.90
2023-05-05T20:38:23.160Z,2.65
2023-05-05T20:40:51.067Z,2.42
2023-05-05T20:43:19.031Z,3.03
2023-05-05T20:45:46.065Z,2.78
2023-05-05T20:48:13.072Z,2.80
2023-05-05T20:50:43.453Z,2.83
2023-05-05T20:53:12.056Z,2.75
2023-05-05T20:55:39.058Z,2.85
2023-05-05T20:58:07.475Z,2.53
2023-05-05T21:00:34.858Z,2.45
2023-05-05T21:03:05.126Z,2.42
2023-05-05T21:05:32.336Z,2.78
2023-05-05T21:08:00.868Z,2.92
2023-05-05T21:10:29.153Z,2.80
2023-05-05T21:12:56.485Z,2.58
2023-05-05T21:15:23.537Z,2.40
2023-05-05T21:17:50.727Z,2.80
2023-05-05T21:20:18.841Z,2.80
2023-05-05T21:22:46.231Z,2.63
2023-05-05T21:25:16.035Z,2.30
2023-05-05T21:27:43.320Z,2.20
2023-05-05T21:30:11.430Z,2.40
2023-05-05T21:32:39.827Z,2.58
2023-05-05T21:35:08.743Z,2.40
2023-05-05T21:37:37.841Z,2.53
2023-05-05T21:40:06.460Z,2.63
2023-05-05T21:42:33.524Z,2.60
2023-05-05T21:45:00.750Z,2.80
2023-05-05T21:47:27.916Z,3.20
2023-05-05T21:49:54.862Z,2.35
2023-05-05T21:52:21.887Z,2.20
2023-05-05T21:54:49.059Z,2.47
2023-05-05T21:57:16.202Z,2.42
2023-05-05T21:59:43.152Z,2.80
2023-05-05T22:02:10.072Z,2.60
2023-05-05T22:04:37.064Z,2.58
2023-05-05T22:07:04.387Z,2.22
2023-05-05T22:09:31.386Z,2.60
2023-05-05T22:11:58.407Z,2.33
2023-05-05T22:14:25.464Z,2.35
2023-05-05T22:16:52.503Z,2.38
2023-05-05T22:19:19.498Z,2.45
2023-05-05T22:21:46.431Z,2.50
2023-05-05T22:24:13.468Z,2.58
2023-05-05T22:26:43.430Z,2.38
2023-05-05T22:29:11.200Z,2.60
2023-05-05T22:31:38.667Z,2.28
2023-05-05T22:34:05.760Z,2.25
2023-05-05T22:36:32.748Z,2.30
2023-05-05T22:38:59.718Z,2.33
2023-05-05T22:41:26.878Z,3.03
2023-05-05T22:43:54.091Z,2.22
2023-05-05T22:46:21.064Z,2.40
2023-05-05T22:48:49.212Z,2.40
2023-05-05T22:51:16.580Z,2.38
2023-05-05T22:53:43.483Z,2.42
2023-05-05T22:56:10.449Z,2.58
2023-05-05T22:58:37.626Z,2.47
2023-05-05T23:01:04.803Z,2.25
2023-05-05T23:03:32.233Z,2.40
2023-05-05T23:05:59.142Z,1.85
2023-05-05T23:08:26.119Z,2.15
2023-05-05T23:10:53.530Z,2.10
2023-05-05T23:13:20.679Z,2.65
2023-05-05T23:15:47.807Z,2.10
2023-05-05T23:18:14.840Z,2.10
2023-05-05T23:20:41.764Z,2.40
2023-05-05T23:23:08.869Z,1.45
2023-05-05T23:25:35.858Z,2.30
2023-05-05T23:28:03.024Z,2.20
2023-05-05T23:30:30.086Z,1.90
2023-05-05T23:32:58.122Z,2.00
2023-05-05T23:35:28.164Z,1.63
2023-05-05T23:37:55.312Z,1.83
2023-05-05T23:40:22.625Z,1.90
2023-05-05T23:42:49.582Z,1.90
2023-05-05T23:45:19.147Z,2.00
2023-05-05T23:47:46.511Z,2.20
2023-05-05T23:50:16.296Z,2.20
2023-05-05T23:52:43.346Z,2.10
2023-05-05T23:55:10.809Z,2.60
2023-05-05T23:57:38.064Z,2.40
